sensor_id;sensor_type;location;lat;lon;timestamp;P1;durP1;ratioP1;P2;durP2;ratioP2
19347;SDS011;9810;52.480;9.806;2023-03-20T00:02:28;32.67;;;18.23;;
19347;SDS011;9810;52.480;9.806;2023-03-20T00:04:58;31.87;;;18.47;;
19347;SDS011;9810;52.480;9.806;2023-03-20T00:07:25;33.83;;;18.30;;
19347;SDS011;9810;52.480;9.806;2023-03-20T00:09:55;35.90;;;19.97;;
19347;SDS011;9810;52.480;9.806;2023-03-20T00:12:23;37.50;;;19.70;;
19347;SDS011;9810;52.480;9.806;2023-03-20T00:14:51;37.03;;;19.40;;
19347;SDS011;9810;52.480;9.806;2023-03-20T00:17:21;36.97;;;21.20;;
19347;SDS011;9810;52.480;9.806;2023-03-20T00:19:49;41.13;;;21.17;;
19347;SDS011;9810;52.480;9.806;2023-03-20T00:22:16;48.50;;;23.50;;
19347;SDS011;9810;52.480;9.806;2023-03-20T00:24:44;44.50;;;21.83;;
19347;SDS011;9810;52.480;9.806;2023-03-20T00:27:11;52.50;;;23.53;;
19347;SDS011;9810;52.480;9.806;2023-03-20T00:29:42;61.53;;;24.97;;
19347;SDS011;9810;52.480;9.806;2023-03-20T00:32:10;57.60;;;25.73;;
19347;SDS011;9810;52.480;9.806;2023-03-20T00:34:41;66.37;;;27.97;;
19347;SDS011;9810;52.480;9.806;2023-03-20T00:37:11;67.50;;;27.13;;
19347;SDS011;9810;52.480;9.806;2023-03-20T00:39:38;78.53;;;27.60;;
19347;SDS011;9810;52.480;9.806;2023-03-20T00:42:06;69.47;;;28.77;;
19347;SDS011;9810;52.480;9.806;2023-03-20T00:44:46;62.90;;;27.60;;
19347;SDS011;9810;52.480;9.806;2023-03-20T00:47:17;62.57;;;28.17;;
19347;SDS011;9810;52.480;9.806;2023-03-20T00:49:49;60.13;;;25.73;;
19347;SDS011;9810;52.480;9.806;2023-03-20T00:52:19;63.93;;;28.33;;
19347;SDS011;9810;52.480;9.806;2023-03-20T00:54:47;58.73;;;26.40;;
19347;SDS011;9810;52.480;9.806;2023-03-20T00:57:16;58.03;;;27.73;;
19347;SDS011;9810;52.480;9.806;2023-03-20T00:59:49;62.93;;;27.97;;
19347;SDS011;9810;52.480;9.806;2023-03-20T01:02:19;59.90;;;25.60;;
19347;SDS011;9810;52.480;9.806;2023-03-20T01:04:51;66.53;;;27.33;;
19347;SDS011;9810;52.480;9.806;2023-03-20T01:07:19;69.77;;;28.27;;
19347;SDS011;9810;52.480;9.806;2023-03-20T01:09:49;64.90;;;27.83;;
19347;SDS011;9810;52.480;9.806;2023-03-20T01:12:17;64.03;;;26.93;;
19347;SDS011;9810;52.480;9.806;2023-03-20T01:14:46;65.93;;;28.53;;
19347;SDS011;9810;52.480;9.806;2023-03-20T01:17:18;67.10;;;29.30;;
19347;SDS011;9810;52.480;9.806;2023-03-20T01:19:48;68.90;;;30.00;;
19347;SDS011;9810;52.480;9.806;2023-03-20T01:22:18;72.13;;;29.87;;
19347;SDS011;9810;52.480;9.806;2023-03-20T01:24:47;73.07;;;30.13;;
19347;SDS011;9810;52.480;9.806;2023-03-20T01:27:16;76.73;;;29.47;;
19347;SDS011;9810;52.480;9.806;2023-03-20T01:29:44;72.63;;;30.80;;
19347;SDS011;9810;52.480;9.806;2023-03-20T01:32:13;73.13;;;30.87;;
19347;SDS011;9810;52.480;9.806;2023-03-20T01:34:45;75.23;;;31.10;;
19347;SDS011;9810;52.480;9.806;2023-03-20T01:37:16;77.10;;;28.73;;
19347;SDS011;9810;52.480;9.806;2023-03-20T01:39:47;74.27;;;31.53;;
19347;SDS011;9810;52.480;9.806;2023-03-20T01:42:17;74.13;;;32.70;;
19347;SDS011;9810;52.480;9.806;2023-03-20T01:44:45;79.37;;;31.83;;
19347;SDS011;9810;52.480;9.806;2023-03-20T01:47:13;77.83;;;29.67;;
19347;SDS011;9810;52.480;9.806;2023-03-20T01:52:46;75.67;;;29.53;;
19347;SDS011;9810;52.480;9.806;2023-03-20T01:55:19;78.17;;;30.57;;
19347;SDS011;9810;52.480;9.806;2023-03-20T01:57:49;78.77;;;30.07;;
19347;SDS011;9810;52.480;9.806;2023-03-20T02:00:17;84.73;;;33.57;;
19347;SDS011;9810;52.480;9.806;2023-03-20T02:02:48;79.77;;;29.07;;
19347;SDS011;9810;52.480;9.806;2023-03-20T02:05:16;87.00;;;31.57;;
19347;SDS011;9810;52.480;9.806;2023-03-20T02:10:49;74.47;;;28.80;;
19347;SDS011;9810;52.480;9.806;2023-03-20T02:13:29;70.43;;;27.20;;
19347;SDS011;9810;52.480;9.806;2023-03-20T02:16:09;73.43;;;26.93;;
19347;SDS011;9810;52.480;9.806;2023-03-20T02:18:39;71.97;;;26.97;;
19347;SDS011;9810;52.480;9.806;2023-03-20T02:21:22;68.40;;;25.47;;
19347;SDS011;9810;52.480;9.806;2023-03-20T02:24:26;68.67;;;24.20;;
19347;SDS011;9810;52.480;9.806;2023-03-20T02:27:29;62.27;;;25.63;;
19347;SDS011;9810;52.480;9.806;2023-03-20T02:30:24;62.03;;;24.23;;
19347;SDS011;9810;52.480;9.806;2023-03-20T02:33:39;55.93;;;22.17;;
19347;SDS011;9810;52.480;9.806;2023-03-20T02:39:53;51.03;;;20.23;;
19347;SDS011;9810;52.480;9.806;2023-03-20T02:42:48;47.10;;;18.20;;
19347;SDS011;9810;52.480;9.806;2023-03-20T02:45:35;45.10;;;19.17;;
19347;SDS011;9810;52.480;9.806;2023-03-20T02:48:12;45.17;;;19.40;;
19347;SDS011;9810;52.480;9.806;2023-03-20T02:51:07;44.30;;;17.33;;
19347;SDS011;9810;52.480;9.806;2023-03-20T02:53:58;37.93;;;16.17;;
19347;SDS011;9810;52.480;9.806;2023-03-20T02:56:41;33.50;;;15.57;;
19347;SDS011;9810;52.480;9.806;2023-03-20T02:59:24;39.33;;;16.13;;
19347;SDS011;9810;52.480;9.806;2023-03-20T03:02:11;38.70;;;15.93;;
19347;SDS011;9810;52.480;9.806;2023-03-20T03:05:06;30.63;;;13.97;;
19347;SDS011;9810;52.480;9.806;2023-03-20T03:07:44;35.03;;;13.30;;
19347;SDS011;9810;52.480;9.806;2023-03-20T03:10:27;26.37;;;13.33;;
19347;SDS011;9810;52.480;9.806;2023-03-20T03:13:04;34.97;;;15.43;;
19347;SDS011;9810;52.480;9.806;2023-03-20T03:15:46;33.80;;;14.80;;
19347;SDS011;9810;52.480;9.806;2023-03-20T03:18:33;28.80;;;13.20;;
19347;SDS011;9810;52.480;9.806;2023-03-20T03:21:08;30.17;;;13.30;;
19347;SDS011;9810;52.480;9.806;2023-03-20T03:23:43;29.27;;;12.10;;
19347;SDS011;9810;52.480;9.806;2023-03-20T03:26:17;30.17;;;11.80;;
19347;SDS011;9810;52.480;9.806;2023-03-20T03:29:14;27.50;;;13.20;;
19347;SDS011;9810;52.480;9.806;2023-03-20T03:31:48;29.70;;;12.47;;
19347;SDS011;9810;52.480;9.806;2023-03-20T03:34:24;22.47;;;10.40;;
19347;SDS011;9810;52.480;9.806;2023-03-20T03:37:05;29.27;;;11.73;;
19347;SDS011;9810;52.480;9.806;2023-03-20T03:39:50;24.87;;;10.87;;
19347;SDS011;9810;52.480;9.806;2023-03-20T03:42:21;25.67;;;11.87;;
19347;SDS011;9810;52.480;9.806;2023-03-20T03:45:08;30.90;;;13.63;;
19347;SDS011;9810;52.480;9.806;2023-03-20T03:48:00;26.37;;;11.57;;
19347;SDS011;9810;52.480;9.806;2023-03-20T03:50:39;26.07;;;11.20;;
19347;SDS011;9810;52.480;9.806;2023-03-20T03:53:30;24.97;;;11.00;;
19347;SDS011;9810;52.480;9.806;2023-03-20T03:56:02;22.13;;;10.70;;
19347;SDS011;9810;52.480;9.806;2023-03-20T03:58:47;30.07;;;12.20;;
19347;SDS011;9810;52.480;9.806;2023-03-20T04:01:26;26.03;;;12.47;;
19347;SDS011;9810;52.480;9.806;2023-03-20T04:03:57;27.07;;;12.27;;
19347;SDS011;9810;52.480;9.806;2023-03-20T04:06:31;34.77;;;13.00;;
19347;SDS011;9810;52.480;9.806;2023-03-20T04:09:02;36.13;;;13.83;;
19347;SDS011;9810;52.480;9.806;2023-03-20T04:11:33;35.67;;;13.97;;
19347;SDS011;9810;52.480;9.806;2023-03-20T04:14:35;31.37;;;13.57;;
19347;SDS011;9810;52.480;9.806;2023-03-20T04:17:21;36.87;;;13.13;;
19347;SDS011;9810;52.480;9.806;2023-03-20T04:19:52;34.50;;;13.97;;
19347;SDS011;9810;52.480;9.806;2023-03-20T04:22:22;36.00;;;13.63;;
19347;SDS011;9810;52.480;9.806;2023-03-20T04:25:00;38.07;;;14.80;;
19347;SDS011;9810;52.480;9.806;2023-03-20T04:27:42;35.23;;;16.10;;
19347;SDS011;9810;52.480;9.806;2023-03-20T04:30:21;42.63;;;15.87;;
19347;SDS011;9810;52.480;9.806;2023-03-20T04:33:14;42.70;;;17.23;;
19347;SDS011;9810;52.480;9.806;2023-03-20T04:35:44;46.83;;;16.97;;
19347;SDS011;9810;52.480;9.806;2023-03-20T04:38:12;40.43;;;16.83;;
19347;SDS011;9810;52.480;9.806;2023-03-20T04:40:45;53.13;;;18.90;;
19347;SDS011;9810;52.480;9.806;2023-03-20T04:43:15;44.10;;;18.33;;
19347;SDS011;9810;52.480;9.806;2023-03-20T04:45:47;57.73;;;19.50;;
19347;SDS011;9810;52.480;9.806;2023-03-20T04:48:18;56.10;;;19.73;;
19347;SDS011;9810;52.480;9.806;2023-03-20T04:50:48;57.60;;;20.47;;
19347;SDS011;9810;52.480;9.806;2023-03-20T04:53:18;51.17;;;19.83;;
19347;SDS011;9810;52.480;9.806;2023-03-20T04:55:47;46.80;;;19.10;;
19347;SDS011;9810;52.480;9.806;2023-03-20T04:58:21;55.40;;;20.57;;
19347;SDS011;9810;52.480;9.806;2023-03-20T05:00:49;55.10;;;20.53;;
19347;SDS011;9810;52.480;9.806;2023-03-20T05:03:22;53.77;;;18.57;;
19347;SDS011;9810;52.480;9.806;2023-03-20T05:05:51;60.67;;;21.03;;
19347;SDS011;9810;52.480;9.806;2023-03-20T05:08:19;55.63;;;19.53;;
19347;SDS011;9810;52.480;9.806;2023-03-20T05:10:46;54.93;;;20.50;;
19347;SDS011;9810;52.480;9.806;2023-03-20T05:13:15;59.37;;;21.07;;
19347;SDS011;9810;52.480;9.806;2023-03-20T05:15:43;57.90;;;19.87;;
19347;SDS011;9810;52.480;9.806;2023-03-20T05:18:10;56.93;;;20.10;;
19347;SDS011;9810;52.480;9.806;2023-03-20T05:20:40;52.23;;;18.67;;
19347;SDS011;9810;52.480;9.806;2023-03-20T05:23:08;49.77;;;19.90;;
19347;SDS011;9810;52.480;9.806;2023-03-20T05:25:36;56.17;;;20.93;;
19347;SDS011;9810;52.480;9.806;2023-03-20T05:28:07;52.40;;;20.00;;
19347;SDS011;9810;52.480;9.806;2023-03-20T05:30:39;56.43;;;20.77;;
19347;SDS011;9810;52.480;9.806;2023-03-20T05:33:11;51.83;;;20.53;;
19347;SDS011;9810;52.480;9.806;2023-03-20T05:35:42;56.10;;;20.97;;
19347;SDS011;9810;52.480;9.806;2023-03-20T05:38:12;55.67;;;21.07;;
19347;SDS011;9810;52.480;9.806;2023-03-20T05:40:39;60.03;;;20.57;;
19347;SDS011;9810;52.480;9.806;2023-03-20T05:43:11;53.27;;;20.93;;
19347;SDS011;9810;52.480;9.806;2023-03-20T05:45:38;52.13;;;22.40;;
19347;SDS011;9810;52.480;9.806;2023-03-20T05:48:18;54.00;;;20.57;;
19347;SDS011;9810;52.480;9.806;2023-03-20T05:50:51;57.47;;;23.27;;
19347;SDS011;9810;52.480;9.806;2023-03-20T05:53:24;59.23;;;22.73;;
19347;SDS011;9810;52.480;9.806;2023-03-20T05:55:55;49.17;;;19.80;;
19347;SDS011;9810;52.480;9.806;2023-03-20T05:58:28;48.40;;;19.80;;
19347;SDS011;9810;52.480;9.806;2023-03-20T06:00:57;48.73;;;20.17;;
19347;SDS011;9810;52.480;9.806;2023-03-20T06:03:30;54.17;;;20.63;;
19347;SDS011;9810;52.480;9.806;2023-03-20T06:06:10;49.80;;;19.27;;
19347;SDS011;9810;52.480;9.806;2023-03-20T06:08:42;55.87;;;20.30;;
19347;SDS011;9810;52.480;9.806;2023-03-20T06:11:42;49.23;;;21.80;;
19347;SDS011;9810;52.480;9.806;2023-03-20T06:14:23;54.13;;;21.47;;
19347;SDS011;9810;52.480;9.806;2023-03-20T06:16:57;57.73;;;20.87;;
19347;SDS011;9810;52.480;9.806;2023-03-20T06:19:26;51.17;;;20.80;;
19347;SDS011;9810;52.480;9.806;2023-03-20T06:22:05;58.03;;;21.57;;
19347;SDS011;9810;52.480;9.806;2023-03-20T06:24:35;46.20;;;20.33;;
19347;SDS011;9810;52.480;9.806;2023-03-20T06:27:04;50.67;;;21.77;;
19347;SDS011;9810;52.480;9.806;2023-03-20T06:29:48;48.17;;;20.23;;
19347;SDS011;9810;52.480;9.806;2023-03-20T06:32:17;51.53;;;20.67;;
19347;SDS011;9810;52.480;9.806;2023-03-20T06:34:48;56.83;;;22.97;;
19347;SDS011;9810;52.480;9.806;2023-03-20T06:42:43;49.90;;;20.33;;
19347;SDS011;9810;52.480;9.806;2023-03-20T06:45:14;44.93;;;21.17;;
19347;SDS011;9810;52.480;9.806;2023-03-20T06:47:50;47.70;;;19.33;;
19347;SDS011;9810;52.480;9.806;2023-03-20T06:50:20;43.13;;;18.10;;
19347;SDS011;9810;52.480;9.806;2023-03-20T06:52:48;52.17;;;20.77;;
19347;SDS011;9810;52.480;9.806;2023-03-20T06:55:23;42.27;;;18.47;;
19347;SDS011;9810;52.480;9.806;2023-03-20T06:57:57;44.27;;;17.57;;
19347;SDS011;9810;52.480;9.806;2023-03-20T07:00:25;37.17;;;17.57;;
19347;SDS011;9810;52.480;9.806;2023-03-20T07:02:53;43.47;;;18.47;;
19347;SDS011;9810;52.480;9.806;2023-03-20T07:05:20;33.63;;;16.93;;
19347;SDS011;9810;52.480;9.806;2023-03-20T07:07:48;38.23;;;16.83;;
19347;SDS011;9810;52.480;9.806;2023-03-20T07:10:17;39.47;;;17.63;;
19347;SDS011;9810;52.480;9.806;2023-03-20T07:12:56;34.33;;;15.83;;
19347;SDS011;9810;52.480;9.806;2023-03-20T07:15:24;38.67;;;18.97;;
19347;SDS011;9810;52.480;9.806;2023-03-20T07:17:58;33.30;;;15.93;;
19347;SDS011;9810;52.480;9.806;2023-03-20T07:20:28;36.23;;;15.77;;
19347;SDS011;9810;52.480;9.806;2023-03-20T07:22:57;32.33;;;15.43;;
19347;SDS011;9810;52.480;9.806;2023-03-20T07:25:25;32.43;;;16.83;;
19347;SDS011;9810;52.480;9.806;2023-03-20T07:27:58;33.50;;;15.40;;
19347;SDS011;9810;52.480;9.806;2023-03-20T07:30:31;37.00;;;16.80;;
19347;SDS011;9810;52.480;9.806;2023-03-20T07:33:04;35.53;;;16.97;;
19347;SDS011;9810;52.480;9.806;2023-03-20T07:35:34;38.53;;;16.57;;
19347;SDS011;9810;52.480;9.806;2023-03-20T07:38:07;30.87;;;15.40;;
19347;SDS011;9810;52.480;9.806;2023-03-20T07:40:35;34.23;;;16.43;;
19347;SDS011;9810;52.480;9.806;2023-03-20T07:48:52;35.10;;;15.27;;
19347;SDS011;9810;52.480;9.806;2023-03-20T07:51:30;30.53;;;14.17;;
19347;SDS011;9810;52.480;9.806;2023-03-20T07:54:00;31.17;;;14.27;;
19347;SDS011;9810;52.480;9.806;2023-03-20T07:56:34;27.67;;;14.43;;
19347;SDS011;9810;52.480;9.806;2023-03-20T07:59:02;31.17;;;14.60;;
19347;SDS011;9810;52.480;9.806;2023-03-20T08:01:36;30.80;;;14.03;;
19347;SDS011;9810;52.480;9.806;2023-03-20T08:04:04;30.13;;;14.67;;
19347;SDS011;9810;52.480;9.806;2023-03-20T08:06:33;27.23;;;13.57;;
19347;SDS011;9810;52.480;9.806;2023-03-20T08:09:03;27.83;;;13.53;;
19347;SDS011;9810;52.480;9.806;2023-03-20T08:11:38;28.33;;;14.07;;
19347;SDS011;9810;52.480;9.806;2023-03-20T08:14:09;33.70;;;15.10;;
19347;SDS011;9810;52.480;9.806;2023-03-20T08:19:22;25.80;;;14.03;;
19347;SDS011;9810;52.480;9.806;2023-03-20T08:21:56;28.33;;;15.40;;
19347;SDS011;9810;52.480;9.806;2023-03-20T08:24:31;26.43;;;13.83;;
19347;SDS011;9810;52.480;9.806;2023-03-20T08:27:01;28.37;;;12.93;;
19347;SDS011;9810;52.480;9.806;2023-03-20T08:29:31;33.30;;;14.73;;
19347;SDS011;9810;52.480;9.806;2023-03-20T08:32:09;34.03;;;14.90;;
19347;SDS011;9810;52.480;9.806;2023-03-20T08:34:43;27.77;;;14.27;;
19347;SDS011;9810;52.480;9.806;2023-03-20T08:40:30;30.40;;;15.97;;
19347;SDS011;9810;52.480;9.806;2023-03-20T08:43:04;25.23;;;13.70;;
19347;SDS011;9810;52.480;9.806;2023-03-20T08:45:53;31.13;;;14.43;;
19347;SDS011;9810;52.480;9.806;2023-03-20T08:48:25;27.57;;;13.73;;
19347;SDS011;9810;52.480;9.806;2023-03-20T08:51:07;28.73;;;13.53;;
19347;SDS011;9810;52.480;9.806;2023-03-20T08:53:37;24.70;;;12.53;;
19347;SDS011;9810;52.480;9.806;2023-03-20T08:56:07;24.07;;;12.67;;
19347;SDS011;9810;52.480;9.806;2023-03-20T08:58:40;25.03;;;12.47;;
19347;SDS011;9810;52.480;9.806;2023-03-20T09:01:10;26.53;;;13.13;;
19347;SDS011;9810;52.480;9.806;2023-03-20T09:03:42;22.40;;;10.20;;
19347;SDS011;9810;52.480;9.806;2023-03-20T09:06:30;22.67;;;12.10;;
19347;SDS011;9810;52.480;9.806;2023-03-20T09:09:06;22.50;;;11.17;;
19347;SDS011;9810;52.480;9.806;2023-03-20T09:11:43;19.93;;;9.97;;
19347;SDS011;9810;52.480;9.806;2023-03-20T09:14:22;18.65;;;9.23;;
19347;SDS011;9810;52.480;9.806;2023-03-20T09:16:50;15.17;;;9.30;;
19347;SDS011;9810;52.480;9.806;2023-03-20T09:19:25;15.40;;;8.40;;
19347;SDS011;9810;52.480;9.806;2023-03-20T09:21:53;19.50;;;9.67;;
19347;SDS011;9810;52.480;9.806;2023-03-20T09:24:22;17.03;;;10.30;;
19347;SDS011;9810;52.480;9.806;2023-03-20T09:26:57;23.63;;;10.20;;
19347;SDS011;9810;52.480;9.806;2023-03-20T09:29:34;21.17;;;10.57;;
19347;SDS011;9810;52.480;9.806;2023-03-20T09:32:08;20.10;;;11.60;;
19347;SDS011;9810;52.480;9.806;2023-03-20T09:34:41;19.77;;;11.23;;
19347;SDS011;9810;52.480;9.806;2023-03-20T09:37:16;19.43;;;11.03;;
19347;SDS011;9810;52.480;9.806;2023-03-20T09:39:48;20.50;;;11.23;;
19347;SDS011;9810;52.480;9.806;2023-03-20T09:42:23;18.17;;;11.40;;
19347;SDS011;9810;52.480;9.806;2023-03-20T09:45:23;19.27;;;10.77;;
19347;SDS011;9810;52.480;9.806;2023-03-20T09:48:01;18.20;;;10.60;;
19347;SDS011;9810;52.480;9.806;2023-03-20T09:50:50;19.30;;;10.50;;
19347;SDS011;9810;52.480;9.806;2023-03-20T09:53:29;18.60;;;11.43;;
19347;SDS011;9810;52.480;9.806;2023-03-20T09:56:04;19.17;;;11.60;;
19347;SDS011;9810;52.480;9.806;2023-03-20T09:58:39;19.60;;;10.60;;
19347;SDS011;9810;52.480;9.806;2023-03-20T10:01:17;23.43;;;11.53;;
19347;SDS011;9810;52.480;9.806;2023-03-20T10:03:52;17.07;;;10.27;;
19347;SDS011;9810;52.480;9.806;2023-03-20T10:06:49;19.53;;;10.83;;
19347;SDS011;9810;52.480;9.806;2023-03-20T10:09:20;19.73;;;10.03;;
19347;SDS011;9810;52.480;9.806;2023-03-20T10:14:58;18.97;;;10.17;;
19347;SDS011;9810;52.480;9.806;2023-03-20T10:17:50;17.93;;;9.87;;
19347;SDS011;9810;52.480;9.806;2023-03-20T10:20:31;17.73;;;9.57;;
19347;SDS011;9810;52.480;9.806;2023-03-20T10:23:15;20.33;;;9.43;;
19347;SDS011;9810;52.480;9.806;2023-03-20T10:26:10;22.07;;;10.90;;
19347;SDS011;9810;52.480;9.806;2023-03-20T10:28:42;19.70;;;10.83;;
19347;SDS011;9810;52.480;9.806;2023-03-20T10:31:24;18.30;;;9.87;;
19347;SDS011;9810;52.480;9.806;2023-03-20T10:34:00;16.70;;;9.77;;
19347;SDS011;9810;52.480;9.806;2023-03-20T10:36:47;12.97;;;8.50;;
19347;SDS011;9810;52.480;9.806;2023-03-20T10:39:31;12.40;;;7.40;;
19347;SDS011;9810;52.480;9.806;2023-03-20T10:42:12;11.33;;;6.57;;
19347;SDS011;9810;52.480;9.806;2023-03-20T10:44:48;11.50;;;6.90;;
19347;SDS011;9810;52.480;9.806;2023-03-20T10:47:37;8.10;;;5.77;;
19347;SDS011;9810;52.480;9.806;2023-03-20T10:50:15;14.40;;;5.87;;
19347;SDS011;9810;52.480;9.806;2023-03-20T10:52:52;9.50;;;5.80;;
19347;SDS011;9810;52.480;9.806;2023-03-20T10:55:45;10.00;;;6.10;;
19347;SDS011;9810;52.480;9.806;2023-03-20T10:58:14;10.17;;;5.70;;
19347;SDS011;9810;52.480;9.806;2023-03-20T11:00:48;10.40;;;5.97;;
19347;SDS011;9810;52.480;9.806;2023-03-20T11:03:32;13.20;;;5.60;;
19347;SDS011;9810;52.480;9.806;2023-03-20T11:06:14;9.20;;;4.77;;
19347;SDS011;9810;52.480;9.806;2023-03-20T11:08:48;9.70;;;5.33;;
19347;SDS011;9810;52.480;9.806;2023-03-20T11:11:26;6.47;;;4.07;;
19347;SDS011;9810;52.480;9.806;2023-03-20T11:13:56;6.80;;;4.03;;
19347;SDS011;9810;52.480;9.806;2023-03-20T11:16:42;8.00;;;4.53;;
19347;SDS011;9810;52.480;9.806;2023-03-20T11:19:15;8.97;;;4.67;;
19347;SDS011;9810;52.480;9.806;2023-03-20T11:22:05;9.27;;;5.17;;
19347;SDS011;9810;52.480;9.806;2023-03-20T11:24:34;6.87;;;4.23;;
19347;SDS011;9810;52.480;9.806;2023-03-20T11:27:13;7.10;;;4.43;;
19347;SDS011;9810;52.480;9.806;2023-03-20T11:29:43;8.43;;;4.87;;
19347;SDS011;9810;52.480;9.806;2023-03-20T11:32:18;8.77;;;4.47;;
19347;SDS011;9810;52.480;9.806;2023-03-20T11:34:54;9.37;;;4.50;;
19347;SDS011;9810;52.480;9.806;2023-03-20T11:37:41;7.17;;;4.20;;
19347;SDS011;9810;52.480;9.806;2023-03-20T11:40:20;8.40;;;4.50;;
19347;SDS011;9810;52.480;9.806;2023-03-20T11:43:01;7.93;;;4.17;;
19347;SDS011;9810;52.480;9.806;2023-03-20T11:45:33;9.30;;;4.40;;
19347;SDS011;9810;52.480;9.806;2023-03-20T11:48:03;5.10;;;3.60;;
19347;SDS011;9810;52.480;9.806;2023-03-20T11:50:32;8.67;;;4.33;;
19347;SDS011;9810;52.480;9.806;2023-03-20T11:53:18;8.40;;;3.90;;
19347;SDS011;9810;52.480;9.806;2023-03-20T11:55:58;6.53;;;3.63;;
19347;SDS011;9810;52.480;9.806;2023-03-20T11:58:34;4.97;;;4.20;;
19347;SDS011;9810;52.480;9.806;2023-03-20T12:01:10;8.43;;;3.63;;
19347;SDS011;9810;52.480;9.806;2023-03-20T12:03:44;5.27;;;3.37;;
19347;SDS011;9810;52.480;9.806;2023-03-20T12:06:25;5.57;;;3.60;;
19347;SDS011;9810;52.480;9.806;2023-03-20T12:09:04;7.77;;;3.63;;
19347;SDS011;9810;52.480;9.806;2023-03-20T12:11:44;6.13;;;3.93;;
19347;SDS011;9810;52.480;9.806;2023-03-20T12:14:33;8.13;;;3.70;;
19347;SDS011;9810;52.480;9.806;2023-03-20T12:19:57;10.90;;;3.07;;
19347;SDS011;9810;52.480;9.806;2023-03-20T12:22:39;4.23;;;2.97;;
19347;SDS011;9810;52.480;9.806;2023-03-20T12:25:17;6.77;;;2.83;;
19347;SDS011;9810;52.480;9.806;2023-03-20T12:27:54;8.07;;;2.90;;
19347;SDS011;9810;52.480;9.806;2023-03-20T12:30:35;5.67;;;3.10;;
19347;SDS011;9810;52.480;9.806;2023-03-20T12:33:30;4.87;;;2.70;;
19347;SDS011;9810;52.480;9.806;2023-03-20T12:36:10;9.20;;;3.70;;
19347;SDS011;9810;52.480;9.806;2023-03-20T12:38:44;5.27;;;2.80;;
19347;SDS011;9810;52.480;9.806;2023-03-20T12:41:15;5.47;;;2.77;;
19347;SDS011;9810;52.480;9.806;2023-03-20T12:44:09;4.60;;;3.03;;
19347;SDS011;9810;52.480;9.806;2023-03-20T12:47:04;6.80;;;3.93;;
19347;SDS011;9810;52.480;9.806;2023-03-20T12:50:06;4.00;;;3.30;;
19347;SDS011;9810;52.480;9.806;2023-03-20T12:52:47;4.90;;;3.40;;
19347;SDS011;9810;52.480;9.806;2023-03-20T12:55:50;8.80;;;3.30;;
19347;SDS011;9810;52.480;9.806;2023-03-20T12:58:28;7.20;;;3.87;;
19347;SDS011;9810;52.480;9.806;2023-03-20T13:01:14;5.83;;;3.50;;
19347;SDS011;9810;52.480;9.806;2023-03-20T13:10:04;9.10;;;3.80;;
19347;SDS011;9810;52.480;9.806;2023-03-20T13:12:55;3.77;;;2.77;;
19347;SDS011;9810;52.480;9.806;2023-03-20T13:15:41;5.37;;;2.90;;
19347;SDS011;9810;52.480;9.806;2023-03-20T13:18:24;6.03;;;3.83;;
19347;SDS011;9810;52.480;9.806;2023-03-20T13:21:02;4.13;;;2.83;;
19347;SDS011;9810;52.480;9.806;2023-03-20T13:23:42;5.17;;;3.20;;
19347;SDS011;9810;52.480;9.806;2023-03-20T13:26:25;6.23;;;2.77;;
19347;SDS011;9810;52.480;9.806;2023-03-20T13:29:04;4.83;;;3.03;;
19347;SDS011;9810;52.480;9.806;2023-03-20T13:32:28;3.83;;;2.90;;
19347;SDS011;9810;52.480;9.806;2023-03-20T13:34:56;10.03;;;3.10;;
19347;SDS011;9810;52.480;9.806;2023-03-20T13:37:42;5.40;;;3.03;;
19347;SDS011;9810;52.480;9.806;2023-03-20T13:40:30;5.20;;;2.60;;
19347;SDS011;9810;52.480;9.806;2023-03-20T13:43:30;9.07;;;3.30;;
19347;SDS011;9810;52.480;9.806;2023-03-20T13:46:01;5.33;;;3.27;;
19347;SDS011;9810;52.480;9.806;2023-03-20T13:48:42;5.33;;;2.93;;
19347;SDS011;9810;52.480;9.806;2023-03-20T13:51:17;3.60;;;2.60;;
19347;SDS011;9810;52.480;9.806;2023-03-20T13:53:56;5.70;;;2.60;;
19347;SDS011;9810;52.480;9.806;2023-03-20T13:56:58;7.90;;;2.70;;
19347;SDS011;9810;52.480;9.806;2023-03-20T13:59:48;5.53;;;3.07;;
19347;SDS011;9810;52.480;9.806;2023-03-20T14:02:33;4.97;;;2.93;;
19347;SDS011;9810;52.480;9.806;2023-03-20T14:05:40;7.87;;;3.17;;
19347;SDS011;9810;52.480;9.806;2023-03-20T14:11:30;6.03;;;2.73;;
19347;SDS011;9810;52.480;9.806;2023-03-20T14:14:15;6.47;;;2.97;;
19347;SDS011;9810;52.480;9.806;2023-03-20T14:17:10;4.63;;;3.03;;
19347;SDS011;9810;52.480;9.806;2023-03-20T14:19:53;5.87;;;2.57;;
19347;SDS011;9810;52.480;9.806;2023-03-20T14:22:27;8.03;;;2.87;;
19347;SDS011;9810;52.480;9.806;2023-03-20T14:25:04;6.63;;;3.90;;
19347;SDS011;9810;52.480;9.806;2023-03-20T14:27:51;4.23;;;2.63;;
19347;SDS011;9810;52.480;9.806;2023-03-20T14:33:43;7.90;;;2.80;;
19347;SDS011;9810;52.480;9.806;2023-03-20T14:36:25;3.07;;;2.40;;
19347;SDS011;9810;52.480;9.806;2023-03-20T14:39:11;6.73;;;2.70;;
19347;SDS011;9810;52.480;9.806;2023-03-20T14:41:50;5.27;;;2.47;;
19347;SDS011;9810;52.480;9.806;2023-03-20T14:44:26;5.07;;;2.83;;
19347;SDS011;9810;52.480;9.806;2023-03-20T14:47:06;7.33;;;2.47;;
19347;SDS011;9810;52.480;9.806;2023-03-20T14:49:47;8.53;;;2.37;;
19347;SDS011;9810;52.480;9.806;2023-03-20T14:52:27;6.87;;;2.40;;
19347;SDS011;9810;52.480;9.806;2023-03-20T14:55:14;4.17;;;2.30;;
19347;SDS011;9810;52.480;9.806;2023-03-20T14:57:57;3.43;;;1.90;;
19347;SDS011;9810;52.480;9.806;2023-03-20T15:00:32;6.27;;;2.10;;
19347;SDS011;9810;52.480;9.806;2023-03-20T15:03:05;4.47;;;2.00;;
19347;SDS011;9810;52.480;9.806;2023-03-20T15:05:37;4.50;;;2.47;;
19347;SDS011;9810;52.480;9.806;2023-03-20T15:08:07;3.30;;;2.17;;
19347;SDS011;9810;52.480;9.806;2023-03-20T15:10:43;8.67;;;2.17;;
19347;SDS011;9810;52.480;9.806;2023-03-20T15:13:13;6.87;;;2.03;;
19347;SDS011;9810;52.480;9.806;2023-03-20T15:15:50;7.43;;;2.30;;
19347;SDS011;9810;52.480;9.806;2023-03-20T15:18:21;5.87;;;2.87;;
19347;SDS011;9810;52.480;9.806;2023-03-20T15:20:53;9.73;;;2.77;;
19347;SDS011;9810;52.480;9.806;2023-03-20T15:23:24;5.70;;;2.57;;
19347;SDS011;9810;52.480;9.806;2023-03-20T15:25:54;13.30;;;4.23;;
19347;SDS011;9810;52.480;9.806;2023-03-20T15:28:22;6.53;;;2.93;;
19347;SDS011;9810;52.480;9.806;2023-03-20T15:30:51;7.67;;;2.40;;
19347;SDS011;9810;52.480;9.806;2023-03-20T15:33:23;10.83;;;2.97;;
19347;SDS011;9810;52.480;9.806;2023-03-20T15:35:54;5.67;;;2.63;;
19347;SDS011;9810;52.480;9.806;2023-03-20T15:38:25;5.47;;;2.63;;
19347;SDS011;9810;52.480;9.806;2023-03-20T15:40:58;8.07;;;2.90;;
19347;SDS011;9810;52.480;9.806;2023-03-20T15:43:25;6.50;;;2.60;;
19347;SDS011;9810;52.480;9.806;2023-03-20T15:45:55;6.67;;;3.20;;
19347;SDS011;9810;52.480;9.806;2023-03-20T15:48:25;5.37;;;2.53;;
19347;SDS011;9810;52.480;9.806;2023-03-20T15:50:53;3.80;;;2.37;;
19347;SDS011;9810;52.480;9.806;2023-03-20T15:53:24;4.47;;;2.90;;
19347;SDS011;9810;52.480;9.806;2023-03-20T15:55:59;6.70;;;3.00;;
19347;SDS011;9810;52.480;9.806;2023-03-20T15:58:32;6.57;;;2.63;;
19347;SDS011;9810;52.480;9.806;2023-03-20T16:01:01;6.77;;;2.50;;
19347;SDS011;9810;52.480;9.806;2023-03-20T16:03:34;6.13;;;2.73;;
19347;SDS011;9810;52.480;9.806;2023-03-20T16:06:03;7.17;;;2.67;;
19347;SDS011;9810;52.480;9.806;2023-03-20T16:08:40;7.70;;;3.00;;
19347;SDS011;9810;52.480;9.806;2023-03-20T16:11:13;6.07;;;2.80;;
19347;SDS011;9810;52.480;9.806;2023-03-20T16:13:43;5.33;;;3.13;;
19347;SDS011;9810;52.480;9.806;2023-03-20T16:16:13;5.03;;;2.53;;
19347;SDS011;9810;52.480;9.806;2023-03-20T16:18:44;11.70;;;2.83;;
19347;SDS011;9810;52.480;9.806;2023-03-20T16:21:14;7.97;;;2.80;;
19347;SDS011;9810;52.480;9.806;2023-03-20T16:23:47;7.77;;;2.83;;